Time;durP1;ratioP1;P1;durP2;ratioP2;P2;SDS_P1;SDS_P2;PMS_P1;PMS_P2;Temp;Humidity;BMP_temperature;BMP_pressure;BME280_temperature;BME280_humidity;BME280_pressure;Samples;Min_cycle;Max_cycle;Signal;HPM_P1;HPM_P2
2022/11/18 00:01:33;;;;;;;21.55;7.78;;;8.30;99.90;;;;;;5092217;28;20081;-64
2022/11/18 00:03:59;;;;;;;19.15;7.63;;;8.20;99.90;;;;;;5092110;28;20021;-64
2022/11/18 00:06:27;;;;;;;16.98;5.18;;;8.00;99.90;;;;;;5092087;28;20039;-64
2022/11/18 00:08:54;;;;;;;17.00;4.90;;;8.10;99.90;;;;;;5092279;28;20508;-64
2022/11/18 00:14:28;;;;;;;114.53;103.80;;;8.30;99.90;;;;;;5092178;28;20501;-64
2022/11/18 00:16:55;;;;;;;27.58;9.85;;;8.50;99.90;;;;;;5092251;28;20475;-64
2022/11/18 00:19:33;;;;;;;21.80;8.63;;;8.60;99.90;;;;;;5092046;28;20467;-64
2022/11/18 00:22:00;;;;;;;18.73;7.28;;;8.60;99.90;;;;;;5092149;28;20027;-64
2022/11/18 00:24:26;;;;;;;23.67;7.57;;;8.50;99.90;;;;;;5091481;28;20113;-64
2022/11/18 00:26:52;;;;;;;21.30;6.25;;;8.70;99.90;;;;;;5093000;28;20390;-64
2022/11/18 00:29:19;;;;;;;20.73;7.60;;;8.70;99.90;;;;;;5092158;28;20475;-64
2022/11/18 00:31:45;;;;;;;16.10;5.72;;;8.60;99.90;;;;;;5092299;28;20024;-64
2022/11/18 00:34:12;;;;;;;22.30;5.00;;;8.50;99.90;;;;;;5091982;28;20416;-64
2022/11/18 00:36:39;;;;;;;31.05;12.60;;;8.40;99.90;;;;;;5091518;28;20028;-62
2022/11/18 00:39:05;;;;;;;23.80;10.68;;;8.40;99.90;;;;;;5091692;28;20103;-61
2022/11/18 00:44:15;;;;;;;;;;;8.10;99.90;;;;;;5092055;28;20458;-61
2022/11/18 00:46:41;;;;;;;26.08;7.30;;;8.00;99.90;;;;;;5091997;28;19947;-62
2022/11/18 00:49:07;;;;;;;26.73;7.95;;;7.90;99.90;;;;;;5092071;28;20035;-61
2022/11/18 00:51:33;;;;;;;20.23;7.22;;;7.70;99.90;;;;;;5092057;28;20039;-61
2022/11/18 00:53:59;;;;;;;22.00;5.78;;;7.90;99.90;;;;;;5091598;28;20032;-61
2022/11/18 00:56:24;;;;;;;25.60;5.38;;;8.10;99.90;;;;;;5091557;28;20445;-62
2022/11/18 00:58:50;;;;;;;23.90;10.98;;;8.30;99.90;;;;;;5091744;28;20024;-61
2022/11/18 01:01:16;;;;;;;27.20;13.35;;;8.50;99.90;;;;;;5092412;28;20426;-62
2022/11/18 01:03:41;;;;;;;20.42;6.03;;;8.90;99.90;;;;;;5091491;28;20020;-62
2022/11/18 01:06:07;;;;;;;21.63;5.35;;;9.20;99.90;;;;;;5091100;28;20028;-62
2022/11/18 01:08:33;;;;;;;17.73;4.10;;;9.30;99.90;;;;;;5091450;28;20099;-61
2022/11/18 01:13:18;;;;;;;14.70;3.80;;;9.20;99.90;;;;;;5091791;28;20035;-62
2022/11/18 01:13:44;;;;;;;15.30;3.60;;;9.00;99.90;;;;;;5095336;28;20103;-62
2022/11/18 01:16:10;;;;;;;16.83;4.00;;;8.90;99.90;;;;;;5095594;28;20032;-62
2022/11/18 01:18:35;;;;;;;15.25;3.50;;;8.80;99.90;;;;;;5095166;28;20390;-61
2022/11/18 01:21:02;;;;;;;12.52;3.65;;;8.70;99.90;;;;;;5094903;28;20040;-62
2022/11/18 01:23:28;;;;;;;18.85;4.07;;;8.70;99.90;;;;;;5095050;28;20442;-61
2022/11/18 01:25:54;;;;;;;14.52;3.90;;;8.60;99.90;;;;;;5094881;28;20028;-62
2022/11/18 01:28:20;;;;;;;15.73;3.90;;;8.50;99.90;;;;;;5095220;28;20390;-62
2022/11/18 01:30:46;;;;;;;20.55;3.90;;;8.60;99.90;;;;;;5094766;28;20055;-62
2022/11/18 01:33:12;;;;;;;16.10;4.20;;;8.60;99.90;;;;;;5094963;28;20032;-62
2022/11/18 01:35:42;;;;;;;16.17;4.13;;;8.80;99.90;;;;;;5094325;28;20037;-62
2022/11/18 01:38:10;;;;;;;16.52;3.90;;;8.80;99.90;;;;;;5094780;28;20024;-62
2022/11/18 01:40:37;;;;;;;14.00;4.63;;;8.80;99.90;;;;;;5094859;28;20508;-61
2022/11/18 01:43:11;;;;;;;17.92;6.78;;;8.90;99.90;;;;;;5094896;28;20048;-62
2022/11/18 01:45:39;;;;;;;19.20;4.60;;;9.00;99.90;;;;;;5094705;28;20541;-61
2022/11/18 01:48:19;;;;;;;16.30;4.38;;;8.80;99.90;;;;;;5094922;28;20432;-62
2022/11/18 01:50:59;;;;;;;19.42;4.53;;;8.50;99.90;;;;;;5094602;28;20099;-62
2022/11/18 01:53:33;;;;;;;14.18;4.20;;;8.40;99.90;;;;;;5094464;28;20043;-62
2022/11/18 01:56:00;;;;;;;;;;;8.40;99.90;;;;;;5095255;28;20131;-62
2022/11/18 01:58:40;;;;;;;19.38;4.97;;;8.50;99.90;;;;;;5094526;28;19951;-61
2022/11/18 02:01:07;;;;;;;21.20;5.13;;;8.30;99.90;;;;;;5094660;28;20085;-62
2022/11/18 02:03:33;;;;;;;21.55;5.72;;;8.10;99.90;;;;;;5094116;28;20032;-62
2022/11/18 02:06:01;;;;;;;23.88;6.25;;;8.10;99.90;;;;;;5094272;28;20048;-62
2022/11/18 02:08:28;;;;;;;22.73;6.78;;;8.10;99.90;;;;;;5094223;28;20063;-62
2022/11/18 02:10:53;;;;;;;23.77;6.47;;;8.10;99.90;;;;;;5094187;28;20108;-62
2022/11/18 02:13:20;;;;;;;17.40;4.05;;;8.10;99.90;;;;;;5094529;28;20479;-62
2022/11/18 02:16:14;;;;;;;18.75;4.65;;;8.10;99.90;;;;;;5093955;28;20036;-62
2022/11/18 02:18:51;;;;;;;13.82;3.35;;;7.90;99.90;;;;;;5093368;28;20107;-62
2022/11/18 02:21:55;;;;;;;12.50;3.78;;;8.20;99.90;;;;;;5094104;28;20028;-62
2022/11/18 02:24:41;;;;;;;11.43;3.47;;;8.20;99.90;;;;;;5093258;28;20055;-61
2022/11/18 02:27:37;;;;;;;14.27;3.13;;;8.10;99.90;;;;;;5093925;28;20523;-62
2022/11/18 02:30:09;;;;;;;16.83;3.20;;;8.30;99.90;;;;;;5093809;28;20035;-62
2022/11/18 02:32:54;;;;;;;10.45;2.53;;;8.60;99.90;;;;;;5093645;28;20061;-61
2022/11/18 02:35:20;;;;;;;12.75;2.70;;;8.90;99.90;;;;;;5093836;28;20036;-62
2022/11/18 02:37:52;;;;;;;16.15;3.40;;;9.00;99.90;;;;;;5093728;28;20020;-62
2022/11/18 02:40:27;;;;;;;17.93;3.07;;;9.00;99.90;;;;;;5093648;28;20024;-62
2022/11/18 02:43:03;;;;;;;14.07;3.03;;;8.90;99.90;;;;;;5093284;28;20039;-61
2022/11/18 02:45:30;;;;;;;12.80;2.60;;;8.90;99.90;;;;;;5093622;28;20051;-61
2022/11/18 02:47:59;;;;;;;17.20;3.10;;;8.80;99.90;;;;;;5093635;28;20516;-62
2022/11/18 02:50:26;;;;;;;15.68;2.97;;;8.70;99.90;;;;;;5093681;28;20123;-62
2022/11/18 02:52:57;;;;;;;15.50;2.70;;;8.50;99.90;;;;;;5094203;28;20063;-62
2022/11/18 02:55:26;;;;;;;15.88;3.35;;;8.40;99.90;;;;;;5093361;28;20525;-61
2022/11/18 02:57:52;;;;;;;20.23;3.33;;;8.30;99.90;;;;;;5092915;28;20108;-62
2022/11/18 03:00:18;;;;;;;18.23;3.17;;;8.20;99.90;;;;;;5093477;28;20024;-62
2022/11/18 03:02:46;;;;;;;18.08;2.88;;;8.20;99.90;;;;;;5092796;28;20028;-62
2022/11/18 03:05:41;;;;;;;15.20;2.72;;;8.10;99.90;;;;;;5093056;28;20487;-62
2022/11/18 03:08:12;;;;;;;17.90;3.40;;;7.80;99.90;;;;;;5092552;28;20036;-62
2022/11/18 03:10:48;;;;;;;15.20;3.53;;;7.90;99.90;;;;;;5093054;28;20398;-62
2022/11/18 03:13:32;;;;;;;13.05;3.78;;;7.90;99.90;;;;;;5093030;28;20077;-62
2022/11/18 03:16:10;;;;;;;16.45;4.80;;;7.80;99.90;;;;;;5092713;28;20093;-62
2022/11/18 03:18:49;;;;;;;20.30;3.90;;;8.10;99.90;;;;;;5092804;28;20020;-62
2022/11/18 03:21:38;;;;;;;17.52;3.60;;;8.20;99.90;;;;;;5092873;28;20073;-62
2022/11/18 03:24:24;;;;;;;19.58;9.27;;;8.10;99.90;;;;;;5092573;28;20078;-62
2022/11/18 03:26:54;;;;;;;15.40;6.03;;;8.40;99.90;;;;;;5072896;28;20052;-62
2022/11/18 03:29:29;;;;;;;18.45;6.75;;;8.30;99.90;;;;;;5072327;28;20024;-62
2022/11/18 03:32:13;;;;;;;14.18;5.10;;;8.10;99.90;;;;;;5072018;28;20037;-62
2022/11/18 03:34:52;;;;;;;19.50;6.72;;;8.20;99.90;;;;;;5072561;28;20453;-62
2022/11/18 03:37:20;;;;;;;16.30;5.68;;;8.00;99.90;;;;;;5092621;28;20024;-62
2022/11/18 03:39:52;;;;;;;15.48;5.22;;;7.60;99.90;;;;;;5092473;28;20028;-62
2022/11/18 03:42:24;;;;;;;17.80;5.68;;;7.40;99.90;;;;;;5092107;28;20402;-62
2022/11/18 03:44:54;;;;;;;23.98;5.95;;;7.40;99.90;;;;;;5092629;28;20062;-64
2022/11/18 03:47:31;;;;;;;15.98;4.63;;;7.60;99.90;;;;;;5091976;28;20077;-64
2022/11/18 03:50:20;;;;;;;19.45;4.30;;;7.50;99.90;;;;;;5092804;28;20394;-64
2022/11/18 03:52:49;;;;;;;14.68;3.90;;;7.40;99.90;;;;;;5091970;28;20016;-64
2022/11/18 03:55:22;;;;;;;11.65;3.60;;;7.40;99.90;;;;;;5092503;28;20061;-64
2022/11/18 03:58:14;;;;;;;13.27;3.65;;;7.40;99.90;;;;;;5092228;28;20047;-64
2022/11/18 04:00:46;;;;;;;13.82;3.92;;;7.50;99.90;;;;;;5091813;28;20064;-64
2022/11/18 04:03:13;;;;;;;16.85;4.22;;;7.50;99.90;;;;;;5092230;28;20020;-65
2022/11/18 04:05:41;;;;;;;43.90;24.10;;;7.50;99.90;;;;;;5092779;28;20414;-64
2022/11/18 04:08:20;;;;;;;28.35;14.82;;;7.80;99.90;;;;;;5092113;28;20024;-64
2022/11/18 04:11:04;;;;;;;33.78;15.82;;;7.80;99.90;;;;;;5092051;28;20052;-64
2022/11/18 04:13:33;;;;;;;37.10;17.45;;;7.90;99.90;;;;;;5091935;28;20034;-64
2022/11/18 04:15:59;;;;;;;31.92;15.57;;;7.90;99.90;;;;;;5092137;28;20036;-65
2022/11/18 04:18:25;;;;;;;24.55;13.85;;;7.80;99.90;;;;;;5091800;28;20081;-65
2022/11/18 04:20:50;;;;;;;23.95;9.77;;;7.60;99.90;;;;;;5092609;28;20028;-62
2022/11/18 04:23:16;;;;;;;27.58;12.63;;;7.60;99.90;;;;;;5091761;28;20020;-62
2022/11/18 04:25:42;;;;;;;19.35;7.85;;;7.40;99.90;;;;;;5090463;28;20067;-62
2022/11/18 04:28:07;;;;;;;29.40;19.52;;;7.50;99.90;;;;;;5092043;28;20016;-61
2022/11/18 04:30:33;;;;;;;17.25;6.78;;;7.70;99.90;;;;;;5090001;28;20086;-62
2022/11/18 04:32:59;;;;;;;17.38;4.93;;;7.70;99.90;;;;;;5091728;28;20028;-62
2022/11/18 04:35:26;;;;;;;17.90;5.10;;;7.90;99.90;;;;;;5091906;28;20486;-64
2022/11/18 04:37:51;;;;;;;19.60;5.78;;;7.90;99.90;;;;;;5091797;28;20028;-64
2022/11/18 04:40:17;;;;;;;15.50;3.97;;;8.00;99.90;;;;;;5091069;28;20035;-64
2022/11/18 04:42:43;;;;;;;14.93;4.78;;;8.00;99.90;;;;;;5091171;28;20043;-64
2022/11/18 04:45:10;;;;;;;17.90;5.45;;;7.90;99.90;;;;;;5090682;28;20028;-64
2022/11/18 04:47:36;;;;;;;13.68;5.85;;;7.90;99.90;;;;;;5094583;28;20439;-65
2022/11/18 04:50:02;;;;;;;18.58;9.90;;;8.00;99.90;;;;;;5095892;28;20102;-64
2022/11/18 04:52:28;;;;;;;21.45;10.18;;;8.00;99.90;;;;;;5096437;28;20123;-65
2022/11/18 04:54:54;;;;;;;17.25;6.07;;;8.00;99.90;;;;;;5096171;28;20032;-62
2022/11/18 04:57:19;;;;;;;24.00;6.18;;;7.90;99.90;;;;;;5095625;28;20028;-62
2022/11/18 04:59:45;;;;;;;19.33;5.70;;;7.70;99.90;;;;;;5095345;28;20030;-62
2022/11/18 05:02:12;;;;;;;15.40;5.07;;;7.60;99.90;;;;;;5095632;28;20383;-62
2022/11/18 05:04:38;;;;;;;15.60;5.40;;;7.60;99.90;;;;;;5095587;28;20034;-62
2022/11/18 05:07:05;;;;;;;28.58;6.05;;;7.30;99.90;;;;;;5095122;28;20098;-64
2022/11/18 05:09:31;;;;;;;20.25;5.30;;;7.30;99.90;;;;;;5095420;28;20024;-64
2022/11/18 05:14:40;;;;;;;;;;;7.20;99.90;;;;;;5095588;28;20455;-65
2022/11/18 05:17:07;;;;;;;14.27;4.45;;;7.20;99.90;;;;;;5095813;28;19904;-64
2022/11/18 05:19:33;;;;;;;13.02;5.22;;;7.00;99.90;;;;;;5095517;28;20032;-64
2022/11/18 05:21:59;;;;;;;9.68;3.70;;;7.10;99.90;;;;;;5096408;28;20028;-64
2022/11/18 05:24:25;;;;;;;21.85;5.10;;;7.10;99.90;;;;;;5095620;28;20500;-62
2022/11/18 05:26:52;;;;;;;18.25;5.90;;;7.10;99.90;;;;;;5096238;28;20065;-62
2022/11/18 05:29:19;;;;;;;11.75;4.60;;;7.10;99.90;;;;;;5096433;28;20028;-62
2022/11/18 05:31:46;;;;;;;14.40;5.60;;;6.80;99.90;;;;;;5095972;28;20028;-62
2022/11/18 05:34:11;;;;;;;14.52;4.88;;;6.80;99.90;;;;;;5095133;28;20036;-64
2022/11/18 05:36:37;;;;;;;17.48;5.10;;;6.50;99.90;;;;;;5094642;28;20471;-64
2022/11/18 05:39:03;;;;;;;17.85;6.00;;;6.70;99.90;;;;;;5095165;28;20024;-65
2022/11/18 05:44:13;;;;;;;16.15;5.82;;;6.50;99.90;;;;;;5095019;28;20063;-65
2022/11/18 05:46:39;;;;;;;12.48;6.10;;;6.90;99.90;;;;;;5095769;28;20028;-64
2022/11/18 05:49:06;;;;;;;14.23;5.07;;;6.80;99.90;;;;;;5095537;28;20398;-64
2022/11/18 05:51:33;;;;;;;11.63;4.43;;;6.60;99.90;;;;;;5095973;28;20024;-64
2022/11/18 05:54:06;;;;;;;14.80;5.18;;;6.50;99.90;;;;;;5094357;28;20024;-64
2022/11/18 05:56:34;;;;;;;;;;;6.40;99.90;;;;;;5094647;28;20016;-64
2022/11/18 05:59:00;;;;;;;14.68;6.80;;;6.20;99.90;;;;;;5094172;28;19904;-65
2022/11/18 06:01:34;;;;;;;70.90;12.38;;;6.20;99.90;;;;;;5094801;28;20016;-64
2022/11/18 06:04:03;;;;;;;14.93;5.75;;;6.00;99.90;;;;;;5094327;28;20031;-65
2022/11/18 06:06:28;;;;;;;14.25;6.00;;;6.10;99.90;;;;;;5094296;28;20039;-65
2022/11/18 06:09:04;;;;;;;12.98;6.47;;;6.10;99.90;;;;;;5094431;28;20429;-64
2022/11/18 06:11:37;;;;;;;15.80;5.88;;;6.10;99.90;;;;;;5094808;28;20051;-64
2022/11/18 06:14:16;;;;;;;20.40;6.20;;;6.30;99.90;;;;;;5094619;28;20028;-64
2022/11/18 06:16:48;;;;;;;17.50;5.55;;;6.80;99.90;;;;;;5095646;28;20073;-65
2022/11/18 06:19:15;;;;;;;24.23;6.97;;;7.10;99.90;;;;;;5094887;28;20031;-65
2022/11/18 06:21:42;;;;;;;19.60;5.75;;;6.90;99.90;;;;;;5095033;28;20024;-65
2022/11/18 06:24:08;;;;;;;18.60;5.05;;;6.90;99.90;;;;;;5095049;28;20016;-64
2022/11/18 06:26:36;;;;;;;18.92;5.00;;;7.10;99.90;;;;;;5094141;28;20035;-64
2022/11/18 06:29:03;;;;;;;20.90;5.32;;;7.10;99.90;;;;;;5094916;28;20036;-64
2022/11/18 06:31:29;;;;;;;18.60;4.63;;;7.30;99.90;;;;;;5095021;28;20020;-65
2022/11/18 06:33:54;;;;;;;22.50;6.55;;;7.30;99.90;;;;;;5094370;28;20474;-65
2022/11/18 06:36:20;;;;;;;18.33;5.63;;;7.20;99.90;;;;;;5094712;28;20035;-65
2022/11/18 06:38:46;;;;;;;14.95;4.25;;;7.30;99.90;;;;;;5092604;28;20012;-65
2022/11/18 06:41:11;;;;;;;15.18;4.80;;;7.50;99.90;;;;;;5093614;28;20066;-65
2022/11/18 06:43:37;;;;;;;13.25;4.78;;;7.60;99.90;;;;;;5093484;28;20086;-64
2022/11/18 06:48:49;;;;;;;15.88;4.50;;;7.60;99.90;;;;;;5094675;28;20058;-65
2022/11/18 06:51:15;;;;;;;12.65;3.42;;;7.70;99.90;;;;;;5094431;28;20114;-64
2022/11/18 06:53:41;;;;;;;14.35;3.55;;;7.80;99.90;;;;;;5093192;28;20035;-64
2022/11/18 06:56:09;;;;;;;13.45;3.70;;;8.00;99.90;;;;;;5093421;28;20173;-64
2022/11/18 06:58:35;;;;;;;15.57;4.05;;;8.10;99.90;;;;;;5093691;28;20475;-64
2022/11/18 07:01:19;;;;;;;16.20;3.72;;;8.10;99.90;;;;;;5093359;28;20031;-65
2022/11/18 07:03:45;;;;;;;15.82;3.85;;;8.20;99.90;;;;;;5093508;28;20093;-64
2022/11/18 07:06:13;;;;;;;10.77;3.33;;;8.10;99.90;;;;;;5094122;28;20048;-64
2022/11/18 07:08:39;;;;;;;15.00;4.63;;;8.10;99.90;;;;;;5093414;28;20451;-64
2022/11/18 07:11:09;;;;;;;12.23;3.97;;;8.10;99.90;;;;;;5094246;28;20023;-64
2022/11/18 07:13:35;;;;;;;14.38;4.50;;;8.00;99.90;;;;;;5093680;28;20390;-64
2022/11/18 07:16:06;;;;;;;12.73;4.38;;;8.00;99.90;;;;;;5094092;28;20024;-64
2022/11/18 07:18:34;;;;;;;13.90;4.82;;;8.00;99.90;;;;;;5092986;28;20017;-64
2022/11/18 07:21:27;;;;;;;20.85;5.72;;;8.00;99.90;;;;;;5092808;28;20028;-64
2022/11/18 07:23:54;;;;;;;14.80;4.90;;;7.80;99.90;;;;;;5092517;28;20055;-64
2022/11/18 07:26:21;;;;;;;11.98;4.05;;;7.90;99.90;;;;;;5093024;28;20031;-62
2022/11/18 07:28:47;;;;;;;10.98;4.03;;;8.00;99.90;;;;;;5093228;28;20019;-61
2022/11/18 07:31:15;;;;;;;14.00;3.72;;;8.10;99.90;;;;;;5092734;28;20573;-62
2022/11/18 07:33:41;;;;;;;14.15;3.80;;;8.10;99.90;;;;;;5092445;28;20102;-62
2022/11/18 07:36:13;;;;;;;12.52;3.30;;;8.10;99.90;;;;;;5092338;28;20083;-62
2022/11/18 07:38:39;;;;;;;12.65;3.17;;;7.90;99.90;;;;;;5094216;28;20054;-62
2022/11/18 07:41:14;;;;;;;14.23;3.53;;;7.80;99.90;;;;;;5069721;28;20407;-63
2022/11/18 07:43:41;;;;;;;14.00;3.35;;;7.70;99.90;;;;;;5069987;28;20508;-63
2022/11/18 07:46:09;;;;;;;15.57;4.40;;;7.70;99.90;;;;;;5069513;28;20555;-63
2022/11/18 07:48:35;;;;;;;16.90;4.22;;;7.70;99.90;;;;;;5070067;28;20104;-62
2022/11/18 07:51:01;;;;;;;14.45;3.40;;;7.80;99.90;;;;;;5070451;28;20439;-62
2022/11/18 07:53:29;;;;;;;17.05;3.60;;;7.90;99.90;;;;;;5069376;28;20039;-62
2022/11/18 07:55:55;;;;;;;11.57;3.10;;;8.00;99.90;;;;;;5068804;28;20028;-63
2022/11/18 07:58:21;;;;;;;12.10;3.70;;;8.10;99.90;;;;;;5069600;28;20032;-63
2022/11/18 08:00:46;;;;;;;14.32;3.90;;;8.30;99.90;;;;;;5068777;28;20068;-63
2022/11/18 08:03:12;;;;;;;11.98;4.40;;;8.40;99.90;;;;;;5068914;28;20496;-62
2022/11/18 08:05:38;;;;;;;14.63;4.45;;;8.50;99.90;;;;;;5068783;28;20456;-63
2022/11/18 08:08:04;;;;;;;12.25;4.85;;;8.60;99.90;;;;;;5067800;28;20490;-63
2022/11/18 08:10:29;;;;;;;14.77;6.40;;;8.50;99.90;;;;;;5068859;28;20040;-63
2022/11/18 08:12:56;;;;;;;12.43;4.22;;;8.60;99.90;;;;;;5069039;28;20021;-62
2022/11/18 08:15:22;;;;;;;15.90;7.35;;;8.60;99.90;;;;;;5068993;28;20032;-63
2022/11/18 08:17:48;;;;;;;13.02;6.13;;;8.50;99.90;;;;;;5068963;28;20025;-62
2022/11/18 08:20:13;;;;;;;14.13;3.65;;;8.50;99.90;;;;;;5068741;28;20159;-62
2022/11/18 08:22:39;;;;;;;9.32;3.67;;;8.50;99.90;;;;;;5069228;28;20025;-62
2022/11/18 08:25:06;;;;;;;11.88;3.78;;;8.50;99.90;;;;;;5068667;28;20503;-62
2022/11/18 08:27:32;;;;;;;10.70;3.60;;;8.60;99.90;;;;;;5068777;28;20029;-62
2022/11/18 08:29:57;;;;;;;9.52;4.20;;;8.70;99.90;;;;;;5068917;28;20111;-62
2022/11/18 08:32:23;;;;;;;12.40;4.32;;;8.80;99.90;;;;;;5069750;28;20128;-62
2022/11/18 08:34:50;;;;;;;9.82;2.50;;;8.90;99.90;;;;;;5068311;28;20029;-62
2022/11/18 08:37:16;;;;;;;11.85;3.20;;;8.90;99.90;;;;;;5067849;28;20025;-64
2022/11/18 08:39:41;;;;;;;19.63;7.50;;;8.90;99.90;;;;;;5067872;28;20119;-62
2022/11/18 08:42:09;;;;;;;11.82;6.03;;;9.00;99.90;;;;;;5068240;28;20074;-62
2022/11/18 08:44:35;;;;;;;13.63;3.67;;;9.10;99.90;;;;;;5067707;28;20571;-62
2022/11/18 08:47:01;;;;;;;10.82;3.13;;;9.30;99.90;;;;;;5068315;28;20025;-63
2022/11/18 08:49:27;;;;;;;9.98;3.22;;;9.30;99.90;;;;;;5067609;28;20393;-62
2022/11/18 08:51:53;;;;;;;9.63;3.42;;;9.60;99.90;;;;;;5057964;28;20029;-62
2022/11/18 08:54:18;;;;;;;8.98;3.40;;;9.90;99.90;;;;;;5054797;28;20032;-62
2022/11/18 08:56:44;;;;;;;9.80;3.70;;;10.30;99.90;;;;;;5055284;28;20512;-62
2022/11/18 08:59:10;;;;;;;10.60;4.65;;;10.50;99.90;;;;;;5054532;28;20030;-63
2022/11/18 09:01:36;;;;;;;6.22;2.85;;;10.40;99.90;;;;;;5055531;28;20488;-62
2022/11/18 09:04:03;;;;;;;9.38;2.80;;;10.50;99.90;;;;;;5056112;28;20025;-62
2022/11/18 09:06:29;;;;;;;9.70;3.08;;;10.30;99.90;;;;;;5054173;28;20477;-62
2022/11/18 09:08:54;;;;;;;7.88;2.80;;;10.20;99.90;;;;;;5054138;28;20018;-62
2022/11/18 09:11:23;;;;;;;9.32;3.15;;;10.50;99.90;;;;;;5054166;28;20473;-63
2022/11/18 09:13:59;;;;;;;10.30;3.42;;;10.70;99.90;;;;;;5054461;28;20014;-62
2022/11/18 09:16:27;;;;;;;10.82;3.30;;;10.80;99.90;;;;;;5054525;28;20103;-62
2022/11/18 09:18:54;;;;;;;6.55;2.80;;;10.90;99.90;;;;;;5053555;28;20457;-62
2022/11/18 09:21:20;;;;;;;8.57;3.40;;;11.00;99.90;;;;;;5053877;28;20032;-62
2022/11/18 09:23:46;;;;;;;9.13;3.10;;;10.70;99.90;;;;;;5052555;28;20075;-63
2022/11/18 09:26:14;;;;;;;9.52;2.92;;;10.70;99.90;;;;;;5054438;28;20521;-62
2022/11/18 09:28:40;;;;;;;9.30;4.45;;;10.90;99.90;;;;;;5054894;28;20021;-63
2022/11/18 09:31:11;;;;;;;9.02;2.33;;;10.90;99.90;;;;;;5054435;28;20017;-62
2022/11/18 09:33:38;;;;;;;9.38;2.75;;;10.90;99.90;;;;;;5054643;28;20025;-63
2022/11/18 09:36:10;;;;;;;10.32;3.10;;;11.00;99.90;;;;;;5053420;28;20446;-62
2022/11/18 09:38:36;;;;;;;9.10;2.42;;;11.00;99.90;;;;;;5054530;28;20064;-62
2022/11/18 09:41:14;;;;;;;10.45;2.83;;;11.10;99.90;;;;;;5053422;28;20525;-62
2022/11/18 09:44:04;;;;;;;8.45;2.20;;;11.10;99.90;;;;;;5053565;28;20108;-62
2022/11/18 09:46:51;;;;;;;7.05;2.13;;;11.00;99.90;;;;;;5053418;28;20059;-63
2022/11/18 09:49:30;;;;;;;7.68;2.50;;;11.30;99.90;;;;;;5053059;28;20036;-62
2022/11/18 09:52:00;;;;;;;7.97;2.20;;;11.40;99.90;;;;;;5053403;28;20486;-62
2022/11/18 09:54:35;;;;;;;7.50;1.98;;;11.50;99.90;;;;;;5053351;28;20021;-62
2022/11/18 09:57:01;;;;;;;10.82;2.55;;;11.50;99.90;;;;;;5053237;28;20041;-62
2022/11/18 09:59:31;;;;;;;9.68;2.53;;;11.60;99.90;;;;;;5053500;28;20021;-62
2022/11/18 10:02:22;;;;;;;13.25;2.40;;;11.90;99.90;;;;;;5053106;28;20119;-62
2022/11/18 10:04:47;;;;;;;11.73;3.13;;;12.30;99.90;;;;;;5049036;28;20532;-63
2022/11/18 10:07:25;;;;;;;9.60;2.40;;;12.30;99.90;;;;;;5053206;28;20061;-62
2022/11/18 10:09:53;;;;;;;8.30;2.63;;;12.40;99.90;;;;;;5053024;28;20385;-62
2022/11/18 10:12:40;;;;;;;9.10;2.33;;;12.40;99.90;;;;;;5053046;28;20039;-62
2022/11/18 10:15:17;;;;;;;6.75;2.35;;;12.50;99.90;;;;;;5052922;28;20035;-62
2022/11/18 10:17:57;;;;;;;14.48;6.68;;;12.70;99.90;;;;;;5052851;28;20102;-62
2022/11/18 10:20:32;;;;;;;12.07;4.25;;;12.80;99.90;;;;;;5053050;28;20383;-62
2022/11/18 10:23:14;;;;;;;13.80;5.22;;;12.60;99.90;;;;;;5052756;28;20501;-62
2022/11/18 10:25:40;;;;;;;14.68;8.23;;;12.50;99.90;;;;;;5053248;28;20029;-62
2022/11/18 10:28:32;;;;;;;13.15;4.90;;;12.40;99.90;;;;;;5052738;28;20032;-62
2022/11/18 10:31:06;;;;;;;10.60;3.05;;;12.30;99.90;;;;;;5050790;28;20041;-63
2022/11/18 10:33:32;;;;;;;20.17;13.88;;;12.20;99.90;;;;;;5052566;28;20040;-63
2022/11/18 10:36:16;;;;;;;21.30;18.52;;;12.10;99.90;;;;;;5052510;28;20102;-63
2022/11/18 10:38:42;;;;;;;;;;;12.10;99.90;;;;;;5053721;28;20498;-63
2022/11/18 10:41:18;;;;;;;35.33;24.55;;;12.10;99.90;;;;;;5052285;28;20297;-63
2022/11/18 10:43:54;;;;;;;17.45;4.45;;;12.00;99.90;;;;;;5052456;28;20378;-63
2022/11/18 10:46:28;;;;;;;9.82;2.70;;;11.90;99.90;;;;;;5052097;28;20078;-63
2022/11/18 10:49:08;;;;;;;27.08;20.63;;;11.80;99.90;;;;;;5052300;28;20028;-63
2022/11/18 10:51:41;;;;;;;10.80;3.50;;;11.80;99.90;;;;;;5052231;28;20025;-63
2022/11/18 10:54:07;;;;;;;10.65;4.30;;;11.70;99.90;;;;;;5052647;28;20032;-63
2022/11/18 10:56:50;;;;;;;9.05;2.80;;;11.60;99.90;;;;;;5052122;28;20478;-62
2022/11/18 10:59:36;;;;;;;11.32;2.90;;;11.70;99.90;;;;;;5051966;28;20025;-62
2022/11/18 11:02:01;;;;;;;11.13;4.03;;;11.80;99.90;;;;;;5046674;28;20068;-62
2022/11/18 11:04:28;;;;;;;16.25;7.35;;;12.00;99.90;;;;;;5052039;28;20068;-62
2022/11/18 11:06:56;;;;;;;15.65;5.75;;;12.30;99.90;;;;;;5052235;28;20029;-62
2022/11/18 11:09:29;;;;;;;10.52;3.85;;;12.40;99.90;;;;;;5051858;28;20104;-63
2022/11/18 11:12:01;;;;;;;9.70;3.80;;;12.40;99.90;;;;;;5052018;28;20056;-62
2022/11/18 11:14:41;;;;;;;12.20;4.53;;;12.60;99.90;;;;;;5051553;28;20342;-62
2022/11/18 11:18:40;;;;;;;16.95;5.65;;;12.60;99.90;;;;;;5051912;28;20170;-62
2022/11/18 11:20:35;;;;;;;10.75;3.60;;;12.20;99.90;;;;;;5049537;28;20049;-63
2022/11/18 11:23:06;;;;;;;8.80;4.90;;;12.10;99.90;;;;;;5052059;28;20052;-63
2022/11/18 11:25:36;;;;;;;11.43;5.45;;;11.90;99.90;;;;;;5051541;28;20512;-63
2022/11/18 11:28:22;;;;;;;23.77;21.25;;;11.90;99.90;;;;;;5051533;28;20025;-63
2022/11/18 11:31:08;;;;;;;30.27;27.23;;;11.80;99.90;;;;;;5051305;28;20029;-63
2022/11/18 11:34:18;;;;;;;16.90;15.07;;;11.80;99.90;;;;;;5051559;28;20071;-63
2022/11/18 11:37:08;;;;;;;7.65;5.10;;;11.60;99.90;;;;;;5050162;28;20037;-63
2022/11/18 11:39:40;;;;;;;7.10;3.03;;;11.70;99.90;;;;;;5051279;28;20055;-63
2022/11/18 11:42:24;;;;;;;6.53;2.65;;;11.80;99.90;;;;;;5051860;28;20063;-63
2022/11/18 11:44:59;;;;;;;6.53;3.08;;;11.80;99.90;;;;;;5051129;28;20032;-62
2022/11/18 11:47:55;;;;;;;8.82;3.30;;;11.80;99.90;;;;;;5051575;28;20044;-63
2022/11/18 11:50:30;;;;;;;6.55;3.30;;;11.80;99.90;;;;;;5051415;28;20086;-62
2022/11/18 11:53:16;;;;;;;9.15;4.07;;;11.90;99.90;;;;;;5051343;28;20359;-62
2022/11/18 11:55:58;;;;;;;10.65;5.13;;;11.90;99.90;;;;;;5051891;28;20033;-62
2022/11/18 11:59:00;;;;;;;9.55;4.93;;;12.00;99.90;;;;;;5051750;28;20037;-63
2022/11/18 12:01:40;;;;;;;11.88;4.10;;;12.10;99.90;;;;;;5051334;28;20037;-63
2022/11/18 12:04:31;;;;;;;7.82;3.63;;;12.10;99.90;;;;;;5051308;28;20033;-63
2022/11/18 12:06:58;;;;;;;7.70;3.92;;;12.20;99.90;;;;;;5051502;28;20104;-62
2022/11/18 12:09:33;;;;;;;7.03;3.28;;;12.20;99.90;;;;;;5051591;28;20036;-62
2022/11/18 12:12:34;;;;;;;6.97;2.95;;;12.40;99.90;;;;;;5051180;28;20021;-63
2022/11/18 12:15:03;;;;;;;6.90;2.95;;;12.10;99.90;;;;;;5050085;28;20029;-63
2022/11/18 12:17:37;;;;;;;8.43;2.67;;;12.30;99.90;;;;;;5051171;28;20029;-62
2022/11/18 12:20:41;;;;;;;8.93;2.50;;;12.40;99.90;;;;;;5051157;28;20029;-63
2022/11/18 12:23:18;;;;;;;8.53;2.60;;;12.60;99.90;;;;;;5050374;28;20029;-63
2022/11/18 12:25:47;;;;;;;6.07;2.20;;;12.70;99.90;;;;;;5050935;28;20036;-63
2022/11/18 12:28:32;;;;;;;7.97;2.72;;;12.90;99.90;;;;;;5055279;28;20186;-63
2022/11/18 12:31:16;;;;;;;7.72;2.80;;;12.90;99.90;;;;;;5054967;28;20059;-63
2022/11/18 12:33:46;;;;;;;6.68;2.85;;;13.00;99.90;;;;;;5054904;28;20029;-63
2022/11/18 12:36:34;;;;;;;6.50;2.70;;;12.90;99.90;;;;;;5054720;28;20052;-63
2022/11/18 12:39:25;;;;;;;6.35;2.60;;;12.90;99.90;;;;;;5054879;28;20047;-63
2022/11/18 12:44:40;;;;;;;7.10;2.20;;;13.00;99.90;;;;;;5056220;28;20039;-64
2022/11/18 12:47:11;;;;;;;5.80;2.13;;;13.00;99.90;;;;;;5055265;28;20033;-63
2022/11/18 12:49:37;;;;;;;6.72;2.50;;;13.00;99.90;;;;;;5054580;28;20544;-63
2022/11/18 12:52:28;;;;;;;6.57;3.10;;;13.00;99.90;;;;;;5053573;28;20120;-63
2022/11/18 12:54:56;;;;;;;7.85;2.60;;;12.90;99.90;;;;;;5054761;28;20025;-63
2022/11/18 12:57:31;;;;;;;7.72;2.60;;;12.70;99.90;;;;;;5054000;28;20086;-63
2022/11/18 12:59:57;;;;;;;5.70;2.70;;;12.70;99.90;;;;;;5054138;28;20078;-63
2022/11/18 13:02:28;;;;;;;6.85;2.10;;;12.90;99.90;;;;;;5054737;28;20451;-63
2022/11/18 13:05:10;;;;;;;5.68;1.92;;;13.30;99.90;;;;;;5054759;28;20448;-63
2022/11/18 13:10:30;;;;;;;6.30;3.10;;;13.20;99.90;;;;;;5054063;28;20119;-63
2022/11/18 13:12:56;;;;;;;6.38;2.40;;;13.40;99.90;;;;;;5053756;28;20021;-63
2022/11/18 13:18:19;;;;;;;5.15;1.75;;;13.50;99.90;;;;;;5053280;28;20397;-63
2022/11/18 13:20:56;;;;;;;5.20;1.80;;;13.70;99.90;;;;;;5053798;28;20036;-63
2022/11/18 13:26:29;;;;;;;5.65;2.00;;;13.60;99.90;;;;;;5053765;28;20071;-63
2022/11/18 13:29:12;;;;;;;6.47;1.65;;;13.60;99.90;;;;;;5054302;28;20104;-63
2022/11/18 13:31:43;;;;;;;5.25;2.05;;;13.50;99.90;;;;;;5054140;28;20068;-63
2022/11/18 13:34:24;;;;;;;6.10;2.15;;;13.50;99.90;;;;;;5053857;28;20484;-63